createdAt,value
2019-02-12T00:00:01.479Z,80.48
2019-02-12T00:01:05.714Z,80.35
2019-02-12T00:02:09.691Z,80.57
2019-02-12T00:03:13.958Z,80.57
2019-02-12T00:04:18.034Z,80.51
2019-02-12T00:05:22.285Z,80.33
2019-02-12T00:06:26.470Z,80.38
2019-02-12T00:07:30.661Z,80.36
2019-02-12T00:08:34.844Z,80.33
2019-02-12T00:09:39.064Z,80.37
2019-02-12T00:10:43.282Z,80.46
2019-02-12T00:11:47.434Z,80.59
2019-02-12T00:12:51.547Z,80.58
2019-02-12T00:13:55.729Z,80.49
2019-02-12T00:14:59.932Z,80.44
2019-02-12T00:16:04.017Z,80.64
2019-02-12T00:17:08.134Z,80.62
2019-02-12T00:18:12.366Z,80.38
2019-02-12T00:19:16.541Z,80.58
2019-02-12T00:20:20.557Z,80.64
2019-02-12T00:21:24.710Z,80.63
2019-02-12T00:22:28.859Z,80.57
2019-02-12T00:23:32.992Z,80.67
2019-02-12T00:24:37.193Z,80.72
2019-02-12T00:25:41.251Z,80.71
2019-02-12T00:26:45.480Z,80.66
2019-02-12T00:27:49.615Z,80.76
2019-02-12T00:28:53.757Z,80.64
2019-02-12T00:29:57.932Z,80.55
2019-02-12T00:31:01.998Z,80.58
2019-02-12T00:32:06.222Z,80.67
2019-02-12T00:33:10.402Z,80.50
2019-02-12T00:34:14.532Z,80.59
2019-02-12T00:35:18.766Z,80.61
2019-02-12T00:36:22.971Z,80.64
2019-02-12T00:37:27.145Z,80.61
2019-02-12T00:38:31.303Z,80.53
2019-02-12T00:39:35.499Z,80.46
2019-02-12T00:40:39.572Z,80.48
2019-02-12T00:41:43.786Z,80.46
2019-02-12T00:42:47.886Z,80.37
2019-02-12T00:43:52.090Z,80.35
2019-02-12T00:44:56.290Z,80.34
2019-02-12T00:46:00.502Z,80.34
2019-02-12T00:47:04.563Z,80.37
2019-02-12T00:48:08.812Z,80.39
2019-02-12T00:49:12.801Z,80.34
2019-02-12T00:50:16.971Z,80.36
2019-02-12T00:51:21.151Z,80.33
2019-02-12T00:52:25.374Z,80.34
2019-02-12T00:53:29.462Z,80.42
2019-02-12T00:54:33.651Z,80.39
2019-02-12T00:55:37.809Z,80.48
2019-02-12T00:56:41.898Z,80.45
2019-02-12T00:57:46.135Z,80.56
2019-02-12T00:58:50.227Z,80.55
2019-02-12T00:59:54.250Z,80.54
2019-02-12T01:00:58.494Z,80.57
2019-02-12T01:02:02.726Z,80.57
2019-02-12T01:03:06.921Z,80.52
2019-02-12T01:04:10.986Z,80.66
2019-02-12T01:05:15.205Z,80.84
2019-02-12T01:06:19.412Z,80.90
2019-02-12T01:07:23.585Z,80.88
2019-02-12T01:08:27.765Z,80.79
2019-02-12T01:09:31.874Z,80.77
2019-02-12T01:10:36.014Z,80.99
2019-02-12T01:11:43.277Z,80.99
2019-02-12T01:12:46.436Z,81.02
2019-02-12T01:13:50.611Z,81.08
2019-02-12T01:14:54.713Z,81.10
2019-02-12T01:15:58.956Z,81.13
2019-02-12T01:17:03.115Z,81.20
2019-02-12T01:18:07.266Z,81.12
2019-02-12T01:19:11.321Z,81.13
2019-02-12T01:20:15.562Z,81.19
2019-02-12T01:21:26.084Z,81.21
2019-02-12T01:22:23.629Z,81.11
2019-02-12T01:23:27.898Z,81.16
2019-02-12T01:24:32.100Z,81.18
2019-02-12T01:25:36.270Z,81.13
2019-02-12T01:26:40.375Z,81.10
2019-02-12T01:27:44.579Z,81.07
2019-02-12T01:28:48.758Z,81.07
2019-02-12T01:29:52.933Z,81.02
2019-02-12T01:30:56.996Z,81.10
2019-02-12T01:32:01.103Z,81.15
2019-02-12T01:33:05.304Z,81.12
2019-02-12T01:34:09.337Z,81.09
2019-02-12T01:35:13.473Z,81.12
2019-02-12T01:36:17.643Z,81.10
2019-02-12T01:37:21.855Z,81.06
2019-02-12T01:38:26.018Z,81.03
2019-02-12T01:39:30.100Z,81.00
2019-02-12T01:40:34.358Z,80.94
2019-02-12T01:41:38.546Z,80.92
2019-02-12T01:42:42.708Z,80.90
2019-02-12T01:43:46.848Z,80.88
2019-02-12T01:44:51.045Z,80.90
2019-02-12T01:45:55.124Z,80.89
2019-02-12T01:46:59.300Z,80.91
2019-02-12T01:48:03.330Z,80.89
2019-02-12T01:49:07.609Z,80.93
2019-02-12T01:50:11.758Z,80.95
2019-02-12T01:51:16.035Z,80.88
2019-02-12T01:52:20.203Z,80.80
2019-02-12T01:53:24.411Z,80.90
2019-02-12T01:54:28.622Z,80.91
2019-02-12T01:55:32.682Z,81.01
2019-02-12T01:56:36.868Z,81.00
2019-02-12T01:57:41.057Z,81.03
2019-02-12T01:58:45.170Z,81.13
2019-02-12T01:59:49.417Z,81.14
2019-02-12T02:00:53.525Z,81.08
2019-02-12T02:01:57.641Z,81.12
2019-02-12T02:03:01.839Z,81.01
2019-02-12T02:04:06.003Z,81.05
2019-02-12T02:05:10.181Z,80.98
2019-02-12T02:06:14.362Z,81.00
2019-02-12T02:07:18.563Z,81.04
2019-02-12T02:08:22.632Z,80.99
2019-02-12T02:09:26.846Z,81.10
2019-02-12T02:10:31.017Z,81.19
2019-02-12T02:11:35.217Z,81.19
2019-02-12T02:12:39.384Z,81.03
2019-02-12T02:13:43.398Z,81.21
2019-02-12T02:14:47.675Z,81.17
2019-02-12T02:15:51.732Z,81.21
2019-02-12T02:16:55.978Z,81.18
2019-02-12T02:18:00.151Z,81.19
2019-02-12T02:19:04.265Z,81.17
2019-02-12T02:20:08.362Z,81.30
2019-02-12T02:21:12.465Z,81.18
2019-02-12T02:22:16.600Z,81.13
2019-02-12T02:23:20.736Z,81.09
2019-02-12T02:24:24.899Z,80.99
2019-02-12T02:25:29.117Z,80.94
2019-02-12T02:26:33.285Z,80.99
2019-02-12T02:27:37.493Z,81.01
2019-02-12T02:28:41.545Z,81.03
2019-02-12T02:29:45.808Z,81.00
2019-02-12T02:30:49.993Z,81.08
2019-02-12T02:31:54.208Z,81.14
2019-02-12T02:32:58.367Z,81.11
2019-02-12T02:34:02.552Z,81.24
2019-02-12T02:35:06.626Z,81.22
2019-02-12T02:36:10.787Z,81.18
2019-02-12T02:37:15.037Z,81.26
2019-02-12T02:38:19.113Z,81.32
2019-02-12T02:39:23.238Z,81.31
2019-02-12T02:40:27.459Z,81.36
2019-02-12T02:41:31.607Z,81.35
2019-02-12T02:42:35.654Z,81.36
2019-02-12T02:43:39.762Z,81.44
2019-02-12T02:44:43.984Z,81.39
2019-02-12T02:45:48.043Z,81.33
2019-02-12T02:46:52.365Z,81.32
2019-02-12T02:47:56.368Z,81.29
2019-02-12T02:49:00.513Z,81.28
2019-02-12T02:50:04.651Z,81.30
2019-02-12T02:51:08.734Z,81.33
2019-02-12T02:52:13.032Z,81.45
2019-02-12T02:53:17.070Z,81.42
2019-02-12T02:54:21.330Z,81.41
2019-02-12T02:55:25.500Z,81.51
2019-02-12T02:56:29.557Z,81.50
2019-02-12T02:57:33.850Z,81.54
2019-02-12T02:58:38.005Z,81.38
2019-02-12T02:59:42.136Z,81.51
2019-02-12T03:00:46.237Z,81.57
2019-02-12T03:01:50.502Z,81.59
2019-02-12T03:02:54.716Z,81.52
2019-02-12T03:03:58.780Z,81.55
2019-02-12T03:05:02.964Z,81.58
2019-02-12T03:06:07.165Z,81.70
2019-02-12T03:07:11.385Z,81.71
2019-02-12T03:08:15.426Z,81.69
2019-02-12T03:09:19.609Z,81.63
2019-02-12T03:10:23.787Z,81.65
2019-02-12T03:11:27.969Z,81.61
2019-02-12T03:12:32.100Z,81.67
2019-02-12T03:13:36.332Z,81.47
2019-02-12T03:14:40.418Z,81.56
2019-02-12T03:15:44.544Z,81.55
2019-02-12T03:16:48.773Z,81.61
2019-02-12T03:17:53.003Z,81.55
2019-02-12T03:18:57.039Z,81.49
2019-02-12T03:20:01.285Z,81.38
2019-02-12T03:21:05.391Z,81.36
2019-02-12T03:22:09.384Z,81.33
2019-02-12T03:23:13.723Z,81.33
2019-02-12T03:24:17.770Z,81.38
2019-02-12T03:25:21.955Z,81.37
2019-02-12T03:26:26.131Z,81.31
2019-02-12T03:27:30.377Z,81.40
2019-02-12T03:28:34.560Z,81.54
2019-02-12T03:29:38.740Z,81.51
2019-02-12T03:30:42.899Z,81.53
2019-02-12T03:31:46.950Z,81.55
2019-02-12T03:32:51.105Z,81.49
2019-02-12T03:33:55.240Z,81.53
2019-02-12T03:34:59.375Z,81.59
2019-02-12T03:36:03.588Z,81.56
2019-02-12T03:37:07.794Z,81.55
2019-02-12T03:38:11.931Z,81.42
2019-02-12T03:39:16.109Z,81.42
2019-02-12T03:40:20.302Z,81.37
2019-02-12T03:41:24.368Z,81.39
2019-02-12T03:42:28.522Z,81.38
2019-02-12T03:43:32.697Z,81.29
2019-02-12T03:44:36.791Z,81.34
2019-02-12T03:45:41.041Z,81.33
2019-02-12T03:46:45.108Z,81.38
2019-02-12T03:47:49.203Z,81.37
2019-02-12T03:48:53.441Z,81.34
2019-02-12T03:49:57.606Z,81.29
2019-02-12T03:51:01.708Z,81.36
2019-02-12T03:52:12.657Z,81.38
2019-02-12T03:53:10.014Z,81.34
2019-02-12T03:54:14.223Z,81.32
2019-02-12T03:55:18.259Z,81.35
2019-02-12T03:56:22.380Z,81.34
2019-02-12T03:57:26.557Z,81.38
2019-02-12T03:58:30.669Z,81.36
2019-02-12T03:59:34.827Z,81.31
2019-02-12T04:00:38.969Z,81.34
2019-02-12T04:01:43.056Z,81.28
2019-02-12T04:02:47.282Z,81.32
2019-02-12T04:03:51.491Z,81.30
2019-02-12T04:04:55.614Z,81.29
2019-02-12T04:05:59.810Z,81.32
2019-02-12T04:07:03.886Z,81.32
2019-02-12T04:08:08.075Z,81.27
2019-02-12T04:09:12.270Z,81.31
2019-02-12T04:10:16.333Z,81.29
2019-02-12T04:11:20.553Z,81.23
2019-02-12T04:12:24.710Z,81.19
2019-02-12T04:13:28.884Z,81.15
2019-02-12T04:14:33.013Z,81.16
2019-02-12T04:15:37.083Z,81.13
2019-02-12T04:16:41.228Z,81.12
2019-02-12T04:17:45.510Z,81.09
2019-02-12T04:18:49.528Z,81.09
2019-02-12T04:19:53.789Z,81.11
2019-02-12T04:21:00.867Z,81.12
2019-02-12T04:22:04.041Z,81.08
2019-02-12T04:23:08.221Z,80.99
2019-02-12T04:24:12.285Z,81.05
2019-02-12T04:25:16.444Z,80.94
2019-02-12T04:26:20.591Z,80.93
2019-02-12T04:27:24.773Z,80.96
2019-02-12T04:28:28.858Z,80.90
2019-02-12T04:29:32.898Z,80.86
2019-02-12T04:30:37.173Z,80.92
2019-02-12T04:31:41.269Z,80.90
2019-02-12T04:32:45.478Z,80.87
2019-02-12T04:33:49.542Z,80.81
2019-02-12T04:34:53.537Z,80.79
2019-02-12T04:35:57.821Z,80.85
2019-02-12T04:37:02.010Z,80.85
2019-02-12T04:38:06.155Z,80.84
2019-02-12T04:39:10.371Z,80.83
2019-02-12T04:40:14.517Z,80.92
2019-02-12T04:41:18.610Z,80.87
2019-02-12T04:42:22.809Z,80.88
2019-02-12T04:43:26.891Z,80.93
2019-02-12T04:44:31.013Z,80.94
2019-02-12T04:45:35.214Z,81.00
2019-02-12T04:46:39.272Z,80.97
2019-02-12T04:47:43.621Z,80.98
2019-02-12T04:48:47.766Z,81.02
2019-02-12T04:49:51.920Z,80.95
2019-02-12T04:50:56.024Z,80.95
2019-02-12T04:52:00.244Z,80.93
2019-02-12T04:53:04.350Z,80.98
2019-02-12T04:54:08.483Z,80.96
2019-02-12T04:55:12.716Z,80.82
2019-02-12T04:56:16.837Z,80.86
2019-02-12T04:57:20.977Z,80.85
2019-02-12T04:58:25.202Z,80.86
2019-02-12T04:59:29.208Z,80.75
2019-02-12T05:00:33.393Z,80.68
2019-02-12T05:01:37.602Z,80.68
2019-02-12T05:02:41.798Z,80.73
2019-02-12T05:03:46.034Z,80.78
2019-02-12T05:04:50.041Z,80.73
2019-02-12T05:05:54.233Z,80.71
2019-02-12T05:06:58.454Z,80.80
2019-02-12T05:08:02.532Z,80.80
2019-02-12T05:09:06.766Z,80.72
2019-02-12T05:10:10.924Z,80.73
2019-02-12T05:11:14.879Z,80.74
2019-02-12T05:12:19.179Z,80.69
2019-02-12T05:13:23.353Z,80.67
2019-02-12T05:14:27.419Z,80.70
2019-02-12T05:15:31.648Z,80.64
2019-02-12T05:16:35.720Z,80.59
2019-02-12T05:17:39.926Z,80.64
2019-02-12T05:18:44.085Z,80.67
2019-02-12T05:19:48.188Z,80.54
2019-02-12T05:20:52.375Z,80.35
2019-02-12T05:21:56.576Z,80.41
2019-02-12T05:23:07.684Z,80.42
2019-02-12T05:24:10.442Z,80.48
2019-02-12T05:25:17.957Z,80.42
2019-02-12T05:26:25.169Z,80.38
2019-02-12T05:27:34.193Z,80.23
2019-02-12T05:28:37.104Z,80.21
2019-02-12T05:29:41.626Z,80.17
2019-02-12T05:30:46.813Z,80.17
2019-02-12T05:31:56.419Z,79.99
2019-02-12T05:33:00.199Z,79.95
2019-02-12T05:34:05.004Z,79.99
2019-02-12T05:35:08.930Z,80.18
2019-02-12T05:36:14.035Z,80.12
2019-02-12T05:37:18.720Z,80.04
2019-02-12T05:38:23.433Z,79.89
2019-02-12T05:39:31.194Z,79.84
2019-02-12T05:40:37.210Z,80.06
2019-02-12T05:41:43.485Z,79.99
2019-02-12T05:42:46.779Z,79.88
2019-02-12T05:43:52.910Z,79.98
2019-02-12T05:46:32.448Z,79.90
2019-02-12T05:47:37.943Z,79.48
2019-02-12T05:48:47.629Z,79.68
2019-02-12T05:50:03.334Z,79.56
2019-02-12T05:51:06.710Z,79.63
2019-02-12T05:52:13.465Z,79.65
2019-02-12T05:53:16.770Z,79.55
2019-02-12T05:54:27.876Z,79.53
2019-02-12T05:55:30.656Z,79.28
2019-02-12T05:56:43.929Z,79.24
2019-02-12T05:57:55.439Z,79.01
2019-02-12T05:58:57.928Z,79.05
2019-02-12T06:00:10.998Z,78.96
2019-02-12T06:01:16.583Z,78.93
2019-02-12T06:02:21.739Z,78.97
2019-02-12T06:03:26.199Z,79.13
2019-02-12T06:04:32.849Z,79.00
2019-02-12T06:05:42.330Z,79.01
2019-02-12T06:06:46.158Z,78.96
2019-02-12T06:07:54.904Z,78.84
2019-02-12T06:09:03.914Z,79.15
2019-02-12T06:10:16.809Z,78.95
2019-02-12T06:11:20.404Z,79.19
2019-02-12T06:12:24.268Z,79.25
2019-02-12T06:13:28.554Z,79.18
2019-02-12T06:14:35.712Z,79.29
2019-02-12T06:17:13.104Z,79.30
2019-02-12T06:18:27.621Z,79.46
2019-02-12T06:19:31.012Z,79.59
2019-02-12T06:20:37.675Z,79.51
2019-02-12T06:21:40.999Z,79.42
2019-02-12T06:22:49.099Z,79.21
2019-02-12T06:23:52.232Z,79.34
2019-02-12T06:24:56.491Z,79.34
2019-02-12T06:26:03.713Z,79.17
2019-02-12T06:27:07.973Z,79.23
2019-02-12T06:28:23.868Z,79.28
2019-02-12T06:29:26.368Z,79.42
2019-02-12T06:30:33.545Z,79.51
2019-02-12T06:31:37.769Z,79.52
2019-02-12T06:32:50.466Z,79.54
2019-02-12T06:33:53.079Z,79.56
2019-02-12T06:35:17.138Z,79.54
2019-02-12T06:36:19.478Z,79.58
2019-02-12T06:37:32.509Z,79.56
2019-02-12T06:38:38.168Z,79.73
2019-02-12T06:39:45.368Z,79.69
2019-02-12T06:41:02.661Z,79.70
2019-02-12T06:42:08.175Z,79.73
2019-02-12T06:43:18.354Z,79.83
2019-02-12T06:44:21.926Z,79.71
2019-02-12T06:45:27.725Z,79.79
2019-02-12T06:46:34.228Z,79.84
2019-02-12T06:47:41.157Z,79.86
2019-02-12T06:48:46.436Z,79.87
2019-02-12T06:49:49.984Z,79.87
2019-02-12T06:50:54.220Z,79.91
2019-02-12T06:52:14.428Z,80.01
2019-02-12T06:53:23.728Z,80.10
2019-02-12T06:54:27.326Z,80.20
2019-02-12T06:55:35.015Z,80.22
2019-02-12T06:56:38.108Z,80.23
2019-02-12T06:57:47.295Z,80.25
2019-02-12T06:58:50.213Z,80.21
2019-02-12T06:59:56.351Z,80.18
2019-02-12T07:01:06.021Z,80.11
2019-02-12T07:02:15.071Z,80.15
2019-02-12T07:03:24.015Z,80.09
2019-02-12T07:04:27.855Z,80.10
2019-02-12T07:05:31.590Z,80.11
2019-02-12T07:06:36.711Z,80.15
2019-02-12T07:07:41.488Z,80.25
2019-02-12T07:08:59.520Z,80.28
2019-02-12T07:10:05.837Z,80.19
2019-02-12T07:11:09.021Z,80.18
2019-02-12T07:12:16.004Z,80.21
2019-02-12T07:13:22.257Z,80.23
2019-02-12T07:14:28.585Z,80.22
2019-02-12T07:15:33.802Z,80.19
2019-02-12T07:16:37.393Z,80.25
2019-02-12T07:17:44.422Z,80.30
2019-02-12T07:18:47.838Z,80.15
2019-02-12T07:19:52.005Z,80.18
2019-02-12T07:20:56.252Z,80.18
2019-02-12T07:22:00.265Z,80.18
2019-02-12T07:23:04.487Z,80.15
2019-02-12T07:24:09.598Z,80.11
2019-02-12T07:25:13.533Z,80.15
2019-02-12T07:26:20.834Z,80.13
2019-02-12T07:27:24.115Z,80.13
2019-02-12T07:28:28.305Z,80.12
2019-02-12T07:29:32.299Z,80.07
2019-02-12T07:30:40.477Z,80.03
2019-02-12T07:31:44.481Z,80.05
2019-02-12T07:32:48.157Z,79.97
2019-02-12T07:33:52.338Z,80.07
2019-02-12T07:34:57.506Z,80.06
2019-02-12T07:36:02.267Z,80.06
2019-02-12T07:37:10.952Z,80.02
2019-02-12T07:38:14.847Z,80.00
2019-02-12T07:39:18.630Z,80.05
2019-02-12T07:40:22.831Z,80.12
2019-02-12T07:41:26.924Z,80.15
2019-02-12T07:42:31.116Z,80.16
2019-02-12T07:43:35.395Z,80.15
2019-02-12T07:44:39.696Z,80.21
2019-02-12T07:45:43.873Z,80.24
2019-02-12T07:46:48.040Z,80.24
2019-02-12T07:47:53.248Z,80.35
2019-02-12T07:48:56.930Z,80.32
2019-02-12T07:50:01.158Z,80.27
2019-02-12T07:51:05.232Z,80.30
2019-02-12T07:52:10.533Z,80.28
2019-02-12T07:53:15.258Z,80.25
2019-02-12T07:54:18.926Z,80.23
2019-02-12T07:55:24.045Z,80.26
2019-02-12T07:56:27.930Z,80.18
2019-02-12T07:57:31.991Z,80.14
2019-02-12T07:58:37.322Z,80.14
2019-02-12T07:59:42.685Z,80.17
2019-02-12T08:00:49.353Z,80.03
2019-02-12T08:01:52.588Z,79.93
2019-02-12T08:02:56.788Z,79.91
2019-02-12T08:04:01.944Z,79.94
2019-02-12T08:05:18.711Z,79.86
2019-02-12T08:06:25.235Z,79.72
2019-02-12T08:07:29.198Z,79.77
2019-02-12T08:08:32.968Z,79.75
2019-02-12T08:09:40.159Z,79.61
2019-02-12T08:10:44.543Z,79.60
2019-02-12T08:11:49.246Z,79.65
2019-02-12T08:12:56.036Z,79.63
2019-02-12T08:14:05.263Z,79.56
2019-02-12T08:15:09.016Z,79.45
2019-02-12T08:16:12.856Z,79.29
2019-02-12T08:17:17.163Z,79.14
2019-02-12T08:18:21.290Z,78.86
2019-02-12T08:19:26.451Z,78.99
2019-02-12T08:20:33.392Z,78.97
2019-02-12T08:21:37.731Z,78.89
2019-02-12T08:22:41.503Z,78.79
2019-02-12T08:23:45.666Z,78.55
2019-02-12T08:24:53.766Z,78.70
2019-02-12T08:25:59.874Z,78.63
2019-02-12T08:27:04.085Z,78.83
2019-02-12T08:28:08.161Z,78.67
2019-02-12T08:29:12.307Z,78.57
2019-02-12T08:30:17.473Z,78.48
2019-02-12T08:31:21.288Z,78.55
2019-02-12T08:32:25.500Z,78.36
2019-02-12T08:33:35.657Z,78.65
2019-02-12T08:34:41.627Z,78.26
2019-02-12T08:35:44.853Z,77.91
2019-02-12T08:36:49.095Z,77.83
2019-02-12T08:37:53.215Z,78.02
2019-02-12T08:38:58.404Z,78.13
2019-02-12T08:40:05.216Z,78.15
2019-02-12T08:42:34.578Z,78.11
2019-02-12T08:43:42.283Z,78.35
2019-02-12T08:44:49.542Z,78.32
2019-02-12T08:45:58.435Z,78.12
2019-02-12T08:47:02.186Z,77.93
2019-02-12T08:48:05.887Z,77.96
2019-02-12T08:49:10.086Z,77.92
2019-02-12T08:50:14.192Z,78.04
2019-02-12T08:51:21.403Z,77.93
2019-02-12T08:52:24.781Z,77.98
2019-02-12T08:53:28.830Z,78.00
2019-02-12T08:54:33.068Z,78.07
2019-02-12T08:55:37.306Z,78.06
2019-02-12T08:56:41.602Z,77.98
2019-02-12T08:57:45.796Z,78.05
2019-02-12T08:58:50.024Z,77.93
2019-02-12T08:59:54.101Z,77.82
2019-02-12T09:01:01.280Z,77.93
2019-02-12T09:02:04.522Z,77.98
2019-02-12T09:03:08.669Z,77.78
2019-02-12T09:04:13.789Z,77.84
2019-02-12T09:05:20.669Z,77.82
2019-02-12T09:06:37.961Z,77.72
2019-02-12T09:07:40.442Z,77.79
2019-02-12T09:08:44.503Z,77.88
2019-02-12T09:09:48.912Z,77.88
2019-02-12T09:10:53.947Z,77.91
2019-02-12T09:11:58.657Z,78.04
2019-02-12T09:13:02.666Z,77.82
2019-02-12T09:14:08.676Z,77.58
2019-02-12T09:15:12.185Z,77.55
2019-02-12T09:16:16.516Z,77.39
2019-02-12T09:17:20.525Z,77.26
2019-02-12T09:18:24.800Z,77.50
2019-02-12T09:19:29.035Z,77.51
2019-02-12T09:20:34.277Z,77.37
2019-02-12T09:21:38.960Z,77.24
2019-02-12T09:22:48.736Z,76.58
2019-02-12T09:23:59.859Z,76.47
2019-02-12T09:24:56.230Z,76.72
2019-02-12T09:26:01.293Z,77.03
2019-02-12T09:27:05.300Z,77.19
2019-02-12T09:28:09.488Z,77.39
2019-02-12T09:29:20.696Z,77.36
2019-02-12T09:30:23.243Z,77.07
2019-02-12T09:31:28.478Z,75.97
2019-02-12T09:32:32.480Z,75.07
2019-02-12T09:33:36.581Z,75.21
2019-02-12T09:34:43.690Z,75.57
2019-02-12T09:35:47.954Z,75.55
2019-02-12T09:36:51.732Z,75.56
2019-02-12T09:37:57.039Z,75.16
2019-02-12T09:39:00.842Z,75.83
2019-02-12T09:40:05.076Z,76.06
2019-02-12T09:41:10.172Z,76.14
2019-02-12T09:42:14.894Z,75.98
2019-02-12T09:43:18.755Z,75.77
2019-02-12T09:44:22.922Z,75.42
2019-02-12T09:45:27.077Z,75.27
2019-02-12T09:46:31.275Z,74.87
2019-02-12T09:47:42.407Z,75.13
2019-02-12T09:48:45.147Z,74.20
2019-02-12T09:49:51.219Z,74.08
2019-02-12T09:50:55.899Z,74.43
2019-02-12T09:51:59.768Z,74.80
2019-02-12T09:53:10.865Z,75.06
2019-02-12T09:54:20.658Z,74.50
2019-02-12T09:55:29.617Z,74.53
2019-02-12T09:56:32.377Z,75.01
2019-02-12T09:57:42.412Z,74.50
2019-02-12T09:58:46.201Z,74.20
2019-02-12T09:59:50.051Z,74.58
2019-02-12T10:00:54.253Z,73.74
2019-02-12T10:01:59.040Z,72.89
2019-02-12T10:03:05.152Z,72.40
2019-02-12T10:04:14.837Z,72.03
2019-02-12T10:07:04.906Z,71.64
2019-02-12T10:08:07.217Z,71.54
2019-02-12T10:09:12.248Z,71.25
2019-02-12T10:10:15.981Z,69.92
2019-02-12T10:11:20.162Z,70.83
2019-02-12T10:12:25.397Z,71.00
2019-02-12T10:13:34.513Z,71.03
2019-02-12T10:14:37.452Z,71.30
2019-02-12T10:15:43.881Z,71.02
2019-02-12T10:16:59.423Z,71.39
2019-02-12T10:18:02.178Z,71.17
2019-02-12T10:19:07.252Z,71.00
2019-02-12T10:20:11.086Z,71.24
2019-02-12T10:21:16.492Z,71.17
2019-02-12T10:22:20.159Z,69.88
2019-02-12T10:23:24.391Z,69.39
2019-02-12T10:24:29.602Z,69.17
2019-02-12T10:25:33.417Z,69.73
2019-02-12T10:26:37.680Z,69.61
2019-02-12T10:27:41.909Z,69.89
2019-02-12T10:28:48.798Z,69.33
2019-02-12T10:29:53.863Z,69.32
2019-02-12T10:30:57.170Z,69.47
2019-02-12T10:32:08.419Z,69.30
2019-02-12T10:33:05.615Z,69.00
2019-02-12T10:34:09.736Z,67.63
2019-02-12T10:35:14.984Z,68.54
2019-02-12T10:36:18.889Z,67.95
2019-02-12T10:37:24.087Z,67.67
2019-02-12T10:38:28.043Z,67.77
2019-02-12T10:39:35.286Z,67.89
2019-02-12T10:40:39.511Z,68.82
2019-02-12T10:41:44.398Z,68.84
2019-02-12T10:42:50.011Z,67.50
2019-02-12T10:43:54.823Z,67.68
2019-02-12T10:44:58.628Z,67.82
2019-02-12T10:46:03.737Z,67.71
2019-02-12T10:47:10.675Z,67.61
2019-02-12T10:48:14.899Z,67.18
2019-02-12T10:49:19.019Z,66.90
2019-02-12T10:50:23.962Z,67.45
2019-02-12T10:51:30.910Z,66.21
2019-02-12T10:52:35.286Z,65.65
2019-02-12T10:53:39.148Z,65.88
2019-02-12T10:54:44.215Z,65.91
2019-02-12T10:55:48.013Z,66.50
2019-02-12T10:56:52.209Z,64.99
2019-02-12T10:57:57.286Z,64.99
2019-02-12T10:59:02.111Z,64.76
2019-02-12T11:00:05.993Z,64.88
2019-02-12T11:01:10.299Z,65.15
2019-02-12T11:02:14.507Z,65.32
2019-02-12T11:03:19.634Z,66.37
2019-02-12T11:04:25.458Z,64.58
2019-02-12T11:05:32.034Z,64.82
2019-02-12T11:06:35.448Z,65.20
2019-02-12T11:07:39.677Z,65.12
2019-02-12T11:08:44.156Z,66.14
2019-02-12T11:09:48.207Z,65.92
2019-02-12T11:10:52.476Z,65.37
2019-02-12T11:11:57.778Z,65.75
2019-02-12T11:13:04.672Z,63.67
2019-02-12T11:14:22.126Z,63.97
2019-02-12T11:15:25.678Z,65.24
2019-02-12T11:16:29.525Z,65.10
2019-02-12T11:17:40.711Z,65.24
2019-02-12T11:18:43.402Z,64.66
2019-02-12T11:19:53.463Z,64.04
2019-02-12T11:20:56.438Z,64.57
2019-02-12T11:22:01.662Z,64.87
2019-02-12T11:23:05.416Z,65.07
2019-02-12T11:24:09.585Z,63.89
2019-02-12T11:25:13.678Z,63.18
2019-02-12T11:26:17.933Z,63.69
2019-02-12T11:27:21.966Z,63.83
2019-02-12T11:28:26.234Z,64.63
2019-02-12T11:29:30.558Z,64.86
2019-02-12T11:30:34.667Z,63.87
2019-02-12T11:31:38.839Z,63.28
2019-02-12T11:32:43.022Z,63.60
2019-02-12T11:33:47.253Z,63.52
2019-02-12T11:34:51.424Z,64.43
2019-02-12T11:35:55.543Z,64.28
2019-02-12T11:36:59.783Z,63.34
2019-02-12T11:38:04.019Z,64.11
2019-02-12T11:39:08.244Z,62.36
2019-02-12T11:40:13.491Z,61.84
2019-02-12T11:41:16.503Z,62.75
2019-02-12T11:42:20.759Z,62.92
2019-02-12T11:43:24.859Z,62.17
2019-02-12T11:44:29.094Z,61.69
2019-02-12T11:45:33.332Z,61.65
2019-02-12T11:46:37.588Z,61.61
2019-02-12T11:47:41.797Z,61.68
2019-02-12T11:48:46.025Z,61.57
2019-02-12T11:49:50.203Z,61.77
2019-02-12T11:50:54.435Z,62.41
2019-02-12T11:51:59.824Z,61.53
2019-02-12T11:53:02.889Z,60.95
2019-02-12T11:54:07.089Z,60.91
2019-02-12T11:55:11.228Z,61.27
2019-02-12T11:56:15.523Z,61.77
2019-02-12T11:57:19.685Z,61.93
2019-02-12T11:58:23.946Z,60.30
2019-02-12T11:59:28.115Z,59.65
2019-02-12T12:00:32.223Z,60.20
2019-02-12T12:01:36.490Z,59.17
2019-02-12T12:02:42.052Z,58.73
2019-02-12T12:03:44.824Z,58.23
2019-02-12T12:04:48.977Z,58.43
2019-02-12T12:05:53.143Z,58.94
2019-02-12T12:06:57.308Z,57.86
2019-02-12T12:08:01.579Z,58.48
2019-02-12T12:09:05.794Z,60.30
2019-02-12T12:10:10.025Z,59.25
2019-02-12T12:11:14.171Z,59.00
2019-02-12T12:12:18.438Z,59.73
2019-02-12T12:13:22.757Z,59.60
2019-02-12T12:14:27.716Z,60.18
2019-02-12T12:15:31.691Z,60.42
2019-02-12T12:16:35.937Z,61.47
2019-02-12T12:17:40.076Z,60.75
2019-02-12T12:18:44.340Z,61.63
2019-02-12T12:19:48.476Z,61.53
2019-02-12T12:20:52.882Z,61.34
2019-02-12T12:21:57.047Z,60.90
2019-02-12T12:23:01.298Z,60.96
2019-02-12T12:24:05.553Z,61.29
2019-02-12T12:25:09.687Z,61.06
2019-02-12T12:26:13.972Z,60.59
2019-02-12T12:27:18.201Z,61.48
2019-02-12T12:28:22.388Z,61.44
2019-02-12T12:29:26.752Z,61.70
2019-02-12T12:30:30.827Z,59.75
2019-02-12T12:31:34.997Z,59.64
2019-02-12T12:32:39.124Z,59.95
2019-02-12T12:33:43.408Z,59.45
2019-02-12T12:34:47.706Z,60.87
2019-02-12T12:35:51.926Z,60.69
2019-02-12T12:36:56.010Z,59.60
2019-02-12T12:38:00.238Z,59.80
2019-02-12T12:39:04.499Z,60.09
2019-02-12T12:40:08.737Z,59.85
2019-02-12T12:41:12.975Z,59.26
2019-02-12T12:42:17.184Z,58.82
2019-02-12T12:43:21.438Z,59.35
2019-02-12T12:44:25.709Z,60.22
2019-02-12T12:45:29.768Z,59.62
2019-02-12T12:46:34.045Z,60.82
2019-02-12T12:47:38.163Z,58.50
2019-02-12T12:48:42.371Z,57.65
2019-02-12T12:49:46.749Z,59.76
2019-02-12T12:50:51.033Z,58.34
2019-02-12T12:51:55.188Z,59.02
2019-02-12T12:52:59.265Z,59.01
2019-02-12T12:54:03.691Z,60.01
2019-02-12T12:55:07.774Z,60.76
2019-02-12T12:56:11.978Z,60.78
2019-02-12T12:57:16.249Z,60.77
2019-02-12T12:58:20.421Z,60.30
2019-02-12T12:59:24.644Z,60.64
2019-02-12T13:00:28.951Z,57.73
2019-02-12T13:01:33.225Z,57.96
2019-02-12T13:02:37.271Z,58.23
2019-02-12T13:03:41.650Z,58.55
2019-02-12T13:04:45.870Z,59.76
2019-02-12T13:05:50.016Z,60.05
2019-02-12T13:06:54.320Z,58.10
2019-02-12T13:07:58.561Z,57.50
2019-02-12T13:09:02.816Z,57.46
2019-02-12T13:10:07.089Z,59.28
2019-02-12T13:11:11.183Z,58.76
2019-02-12T13:12:15.306Z,56.63
2019-02-12T13:13:19.633Z,57.40
2019-02-12T13:14:23.798Z,59.15
2019-02-12T13:15:28.092Z,57.45
2019-02-12T13:16:32.332Z,57.76
2019-02-12T13:17:36.591Z,56.64
2019-02-12T13:18:40.938Z,56.43
2019-02-12T13:19:45.101Z,57.97
2019-02-12T13:20:49.424Z,58.47
2019-02-12T13:21:53.525Z,56.66
2019-02-12T13:22:57.814Z,57.17
2019-02-12T13:24:01.913Z,58.97
2019-02-12T13:25:08.716Z,58.46
2019-02-12T13:26:10.621Z,58.45
2019-02-12T13:27:14.821Z,56.56
2019-02-12T13:28:18.950Z,56.38
2019-02-12T13:29:23.248Z,57.16
2019-02-12T13:30:27.473Z,55.87
2019-02-12T13:31:31.742Z,55.84
2019-02-12T13:32:35.981Z,55.43
2019-02-12T13:33:40.184Z,55.56
2019-02-12T13:34:44.435Z,57.49
2019-02-12T13:35:48.527Z,56.89
2019-02-12T13:36:52.740Z,56.00
2019-02-12T13:37:56.960Z,54.84
2019-02-12T13:39:01.251Z,54.97
2019-02-12T13:40:05.403Z,56.28
2019-02-12T13:41:09.675Z,56.08
2019-02-12T13:42:13.822Z,56.10
2019-02-12T13:43:18.105Z,55.79
2019-02-12T13:44:22.388Z,56.82
2019-02-12T13:45:26.528Z,56.40
2019-02-12T13:46:30.743Z,55.49
2019-02-12T13:47:35.034Z,56.28
2019-02-12T13:48:39.264Z,56.21
2019-02-12T13:49:43.557Z,55.37
2019-02-12T13:50:47.717Z,55.38
2019-02-12T13:51:51.975Z,54.50
2019-02-12T13:52:56.300Z,55.06
2019-02-12T13:54:00.479Z,56.11
2019-02-12T13:55:04.558Z,56.42
2019-02-12T13:56:08.896Z,55.91
2019-02-12T13:57:13.137Z,56.89
2019-02-12T13:58:17.281Z,56.97
2019-02-12T13:59:21.520Z,57.52
2019-02-12T14:00:25.676Z,57.34